CMA CGM Aristote — MRPN4 — position and weather

sailwx.info

Track history (hours):
 
Tides and Currents Weather Stations Pressure Air Temp Water Temp Dewpoint Dewpoint Depression Visibility Wind Speed Wind Dir Waves Ship Positions

CMA CGM Aristote

Last reported at 2016-Feb-06 00:09 UTC. Time now 2016-Feb-06 20:42 UTC.
Position N 35°57' W 006°05'.

Length 170 m; draft 9.8 m.

Type: Ship (hazmat cat A). MMSI: 235054581.

Date/timePositionNaut miles runAvg speedWind from/ knotsBaromVisibWave heightAir tempDewpointWater temp
2016-Feb-06 00:09N 35°57' W 006°05'813.3
2016-Feb-05 23:33N 35°57' W 005°56'1414.2
2016-Feb-05 22:33N 35°57' W 005°38'119 5.9
2016-Feb-05 02:19N 36°17' W 008°04'1214.5
2016-Feb-05 01:28N 36°20' W 008°19'1916.7
2016-Feb-05 00:19N 36°24' W 008°42'1418.3
2016-Feb-04 23:33N 36°29' W 008°58'1816.8
2016-Feb-04 22:30N 36°35' W 009°19'1717.4
2016-Feb-04 21:30N 36°48' W 009°33'1817.7
2016-Feb-04 20:31N 37°05' W 009°38'1918.5
2016-Feb-04 19:30N 37°23' W 009°42'1717.5
2016-Feb-04 18:33N 37°40' W 009°46'1918.8
2016-Feb-04 17:33N 37°58' W 009°52'1919.1
2016-Feb-04 16:33N 38°17' W 009°58'1919.1
2016-Feb-04 15:33N 38°35' W 010°04'1918.8
2016-Feb-04 14:33N 38°54' W 010°06'1919.0
2016-Feb-04 13:33N 39°13' W 010°06'2819.6
2016-Feb-04 12:07N 39°41' W 010°05'1219.3
2016-Feb-04 11:30N 39°53' W 010°05'1919.1
2016-Feb-04 10:30N 40°12' W 010°05'1919.4
2016-Feb-04 09:30N 40°31' W 010°06'1818.5
2016-Feb-04 08:31N 40°49' W 010°06'2019.1
2016-Feb-04 07:28N 41°10' W 010°06'1618.2
2016-Feb-04 06:33N 41°24' W 009°56'2018.9
2016-Feb-04 05:30N 41°38' W 009°37'2019.5
2016-Feb-04 04:30N 41°52' W 009°19'  
2016-Feb-01 12:27N 49°54' W 003°17'4811.3
2016-Feb-01 08:10N 50°02' W 002°03'813.5
2016-Feb-01 07:33N 49°59' W 001°51'4614.6
2016-Feb-01 04:23N 49°42' W 000°44'1113.6
2016-Feb-01 03:34N 49°38' W 000°28'1313.1
2016-Feb-01 02:33N 49°31' W 000°11'1211.6
2016-Feb-01 01:33N 49°26' E 000°05'1010.1
2016-Feb-01 00:33N 49°26' E 000°21'8 7.8
2016-Jan-31 23:33N 49°28' E 000°33'3 0.1
2016-Jan-31 00:08N 49°28' E 000°28'814.7
2016-Jan-30 23:33N 49°26' E 000°16'1211.9
2016-Jan-30 22:33N 49°28' W 000°02'5 4.7
2016-Jan-30 21:33N 49°29' E 000°05'3 3.3
2016-Jan-30 20:33N 49°27' E 000°10'0 0.0
2016-Jan-30 19:33N 49°27' E 000°10'0 0.0
2016-Jan-30 18:33N 49°27' E 000°10'0 0.0
2016-Jan-30 17:33N 49°27' E 000°10'0 0.0
2016-Jan-30 16:33N 49°27' E 000°10'0 0.0
2016-Jan-30 15:33N 49°27' E 000°10'0 0.0
2016-Jan-30 14:33N 49°27' E 000°10'0 0.0
2016-Jan-30 13:30N 49°27' E 000°10'0 0.0
2016-Jan-30 12:33N 49°27' E 000°10'0 0.0
2016-Jan-30 11:33N 49°27' E 000°10'0 0.0
2016-Jan-30 10:33N 49°27' E 000°10'0 0.0
2016-Jan-30 09:33N 49°27' E 000°10'0 0.0
2016-Jan-30 08:33N 49°27' E 000°10'0 0.0
2016-Jan-30 07:33N 49°27' E 000°10'0 0.0
2016-Jan-30 06:33N 49°27' E 000°10'0 0.0
2016-Jan-30 05:33N 49°27' E 000°10'0 0.0
2016-Jan-30 04:33N 49°27' E 000°10'0 0.0
2016-Jan-30 03:33N 49°27' E 000°10'0 0.0
2016-Jan-30 02:33N 49°27' E 000°10'0 0.0
2016-Jan-30 01:33N 49°27' E 000°10'0 0.0
2016-Jan-30 00:33N 49°27' E 000°10'0 0.0
2016-Jan-29 23:33N 49°27' E 000°10'0 0.0
2016-Jan-29 22:33N 49°28' E 000°10'0 0.0
2016-Jan-29 21:33N 49°27' E 000°10'0 0.0
2016-Jan-29 20:33N 49°27' E 000°10'4 3.7
2016-Jan-29 19:33N 49°29' E 000°04'1111.4
2016-Jan-29 18:33N 49°36' W 000°10'1211.8
2016-Jan-29 17:34N 49°48' W 000°09'49 9.8
2016-Jan-29 12:33N 50°32' E 000°23'1110.9
2016-Jan-29 11:34N 50°36' E 000°39'1110.8
2016-Jan-29 10:33N 50°42' E 000°53'1411.6
2016-Jan-29 09:21N 50°50' E 001°11'911.4
2016-Jan-29 08:33N 50°56' E 001°21'1414.1
2016-Jan-29 07:33N 51°06' E 001°37'1211.6
2016-Jan-29 06:33N 51°03' E 001°54'10 9.7
2016-Jan-29 05:33N 51°02' E 002°10'2 1.8
2016-Jan-29 04:29N 51°01' E 002°11'0 0.0
2016-Jan-29 03:32N 51°01' E 002°11'0 0.0
2016-Jan-29 02:32N 51°01' E 002°11'0 0.0
2016-Jan-29 01:32N 51°01' E 002°11'0 0.0
2016-Jan-29 00:23N 51°01' E 002°11'0 0.0
2016-Jan-28 23:32N 51°01' E 002°11'0 0.0
2016-Jan-28 22:33N 51°01' E 002°11'4 4.3
2016-Jan-28 21:33N 51°03' E 002°05'1312.9
2016-Jan-28 20:34N 51°02' E 001°45'1111.3
2016-Jan-28 19:33N 51°14' E 001°47'1312.8
2016-Jan-28 18:33N 51°24' E 001°59'1211.9
2016-Jan-28 17:34N 51°20' E 002°17'1212.1
2016-Jan-28 16:32N 51°23' E 002°36'1111.3
2016-Jan-28 15:33N 51°23' E 002°54'1211.9
2016-Jan-28 14:33N 51°25' E 003°13'1211.8
2016-Jan-28 13:33N 51°26' E 003°32'8 7.9
2016-Jan-28 12:33N 51°23' E 003°44'9 9.3
2016-Jan-28 11:33N 51°25' E 003°58'9 9.3
2016-Jan-28 10:34N 51°23' E 004°13'6 6.2
2016-Jan-28 09:33N 51°18' E 004°16'0 0.0
2016-Jan-28 08:33N 51°18' E 004°16'0 0.0
2016-Jan-28 07:33N 51°18' E 004°16'0 0.0
2016-Jan-28 06:30N 51°18' E 004°16'0 0.0
2016-Jan-28 05:33N 51°18' E 004°16'0 0.0
2016-Jan-28 04:33N 51°18' E 004°16'0 0.0
2016-Jan-28 03:24N 51°18' E 004°16'0 0.0
2016-Jan-28 02:33N 51°18' E 004°16'0 0.0
2016-Jan-28 01:30N 51°18' E 004°16'2 1.6
2016-Jan-28 00:33N 51°19' E 004°16'7 6.6
2016-Jan-27 23:34N 51°22' E 004°07'7 6.8
2016-Jan-27 22:34N 51°22' E 003°56'9 9.1
2016-Jan-27 21:34N 51°25' E 003°42'9 9.1
2016-Jan-27 20:33N 51°29' E 003°29'1211.6
2016-Jan-27 19:33N 51°39' E 003°19'8 8.2
2016-Jan-27 18:34N 51°47' E 003°16'4 3.1
2016-Jan-27 17:07N 51°49' E 003°23'0 0.1
2016-Jan-27 16:29N 51°49' E 003°23'0 0.0
2016-Jan-27 15:33N 51°49' E 003°23'0 0.0
2016-Jan-27 14:33N 51°49' E 003°23'0 0.0
2016-Jan-27 13:25N 51°49' E 003°23'0 0.0
2016-Jan-27 12:32N 51°49' E 003°23'0 0.0
2016-Jan-27 11:21N 51°49' E 003°23'0 0.0
2016-Jan-27 10:33N 51°49' E 003°23'0 0.0
2016-Jan-27 09:32N 51°49' E 003°23'0 0.0
2016-Jan-27 08:32N 51°49' E 003°23'0 0.0
2016-Jan-27 07:33N 51°49' E 003°23'5 4.5
2016-Jan-27 06:32N 51°52' E 003°18'11 5.2
2016-Jan-27 04:23N 52°03' E 003°25'4 4.7
2016-Jan-27 03:33N 52°03' E 003°31'5 5.0
2016-Jan-27 02:33N 52°04' E 003°39'6 5.9
2016-Jan-27 01:33N 52°03' E 003°49'5 5.5
2016-Jan-27 00:34N 52°03' E 003°58'  
Track history (hours):
 
Tides and Currents Weather Stations Pressure Air Temp Water Temp Dewpoint Dewpoint Depression Visibility Wind Speed Wind Dir Waves Ship Positions

CMA CGM Aristote

Last reported at 2016-Feb-06 00:09 UTC. Time now 2016-Feb-06 20:42 UTC.
Position N 35°57' W 006°05'.

Length 170 m; draft 9.8 m.

Type: Ship (hazmat cat A). MMSI: 235054581.

Date/timePositionNaut miles runAvg speedWind from/ knotsBaromVisibWave heightAir tempDewpointWater temp
2016-Feb-06 00:09N 35°57' W 006°05'813.3
2016-Feb-05 23:33N 35°57' W 005°56'1414.2
2016-Feb-05 22:33N 35°57' W 005°38'119 5.9
2016-Feb-05 02:19N 36°17' W 008°04'1214.5
2016-Feb-05 01:28N 36°20' W 008°19'1916.7
2016-Feb-05 00:19N 36°24' W 008°42'1418.3
2016-Feb-04 23:33N 36°29' W 008°58'1816.8
2016-Feb-04 22:30N 36°35' W 009°19'1717.4
2016-Feb-04 21:30N 36°48' W 009°33'1817.7
2016-Feb-04 20:31N 37°05' W 009°38'1918.5
2016-Feb-04 19:30N 37°23' W 009°42'1717.5
2016-Feb-04 18:33N 37°40' W 009°46'1918.8
2016-Feb-04 17:33N 37°58' W 009°52'1919.1
2016-Feb-04 16:33N 38°17' W 009°58'1919.1
2016-Feb-04 15:33N 38°35' W 010°04'1918.8
2016-Feb-04 14:33N 38°54' W 010°06'1919.0
2016-Feb-04 13:33N 39°13' W 010°06'2819.6
2016-Feb-04 12:07N 39°41' W 010°05'1219.3
2016-Feb-04 11:30N 39°53' W 010°05'1919.1
2016-Feb-04 10:30N 40°12' W 010°05'1919.4
2016-Feb-04 09:30N 40°31' W 010°06'1818.5
2016-Feb-04 08:31N 40°49' W 010°06'2019.1
2016-Feb-04 07:28N 41°10' W 010°06'1618.2
2016-Feb-04 06:33N 41°24' W 009°56'2018.9
2016-Feb-04 05:30N 41°38' W 009°37'2019.5
2016-Feb-04 04:30N 41°52' W 009°19'  
2016-Feb-01 12:27N 49°54' W 003°17'4811.3
2016-Feb-01 08:10N 50°02' W 002°03'813.5
2016-Feb-01 07:33N 49°59' W 001°51'4614.6
2016-Feb-01 04:23N 49°42' W 000°44'1113.6
2016-Feb-01 03:34N 49°38' W 000°28'1313.1
2016-Feb-01 02:33N 49°31' W 000°11'1211.6
2016-Feb-01 01:33N 49°26' E 000°05'1010.1
2016-Feb-01 00:33N 49°26' E 000°21'8 7.8
2016-Jan-31 23:33N 49°28' E 000°33'3 0.1
2016-Jan-31 00:08N 49°28' E 000°28'814.7
2016-Jan-30 23:33N 49°26' E 000°16'1211.9
2016-Jan-30 22:33N 49°28' W 000°02'5 4.7
2016-Jan-30 21:33N 49°29' E 000°05'3 3.3
2016-Jan-30 20:33N 49°27' E 000°10'0 0.0
2016-Jan-30 19:33N 49°27' E 000°10'0 0.0
2016-Jan-30 18:33N 49°27' E 000°10'0 0.0
2016-Jan-30 17:33N 49°27' E 000°10'0 0.0
2016-Jan-30 16:33N 49°27' E 000°10'0 0.0
2016-Jan-30 15:33N 49°27' E 000°10'0 0.0
2016-Jan-30 14:33N 49°27' E 000°10'0 0.0
2016-Jan-30 13:30N 49°27' E 000°10'0 0.0
2016-Jan-30 12:33N 49°27' E 000°10'0 0.0
2016-Jan-30 11:33N 49°27' E 000°10'0 0.0
2016-Jan-30 10:33N 49°27' E 000°10'0 0.0
2016-Jan-30 09:33N 49°27' E 000°10'0 0.0
2016-Jan-30 08:33N 49°27' E 000°10'0 0.0
2016-Jan-30 07:33N 49°27' E 000°10'0 0.0
2016-Jan-30 06:33N 49°27' E 000°10'0 0.0
2016-Jan-30 05:33N 49°27' E 000°10'0 0.0
2016-Jan-30 04:33N 49°27' E 000°10'0 0.0
2016-Jan-30 03:33N 49°27' E 000°10'0 0.0
2016-Jan-30 02:33N 49°27' E 000°10'0 0.0
2016-Jan-30 01:33N 49°27' E 000°10'0 0.0
2016-Jan-30 00:33N 49°27' E 000°10'0 0.0
2016-Jan-29 23:33N 49°27' E 000°10'0 0.0
2016-Jan-29 22:33N 49°28' E 000°10'0 0.0
2016-Jan-29 21:33N 49°27' E 000°10'0 0.0
2016-Jan-29 20:33N 49°27' E 000°10'4 3.7
2016-Jan-29 19:33N 49°29' E 000°04'1111.4
2016-Jan-29 18:33N 49°36' W 000°10'1211.8
2016-Jan-29 17:34N 49°48' W 000°09'49 9.8
2016-Jan-29 12:33N 50°32' E 000°23'1110.9
2016-Jan-29 11:34N 50°36' E 000°39'1110.8
2016-Jan-29 10:33N 50°42' E 000°53'1411.6
2016-Jan-29 09:21N 50°50' E 001°11'911.4
2016-Jan-29 08:33N 50°56' E 001°21'1414.1
2016-Jan-29 07:33N 51°06' E 001°37'1211.6
2016-Jan-29 06:33N 51°03' E 001°54'10 9.7
2016-Jan-29 05:33N 51°02' E 002°10'2 1.8
2016-Jan-29 04:29N 51°01' E 002°11'0 0.0
2016-Jan-29 03:32N 51°01' E 002°11'0 0.0
2016-Jan-29 02:32N 51°01' E 002°11'0 0.0
2016-Jan-29 01:32N 51°01' E 002°11'0 0.0
2016-Jan-29 00:23N 51°01' E 002°11'0 0.0
2016-Jan-28 23:32N 51°01' E 002°11'0 0.0
2016-Jan-28 22:33N 51°01' E 002°11'4 4.3
2016-Jan-28 21:33N 51°03' E 002°05'1312.9
2016-Jan-28 20:34N 51°02' E 001°45'1111.3
2016-Jan-28 19:33N 51°14' E 001°47'1312.8
2016-Jan-28 18:33N 51°24' E 001°59'1211.9
2016-Jan-28 17:34N 51°20' E 002°17'1212.1
2016-Jan-28 16:32N 51°23' E 002°36'1111.3
2016-Jan-28 15:33N 51°23' E 002°54'1211.9
2016-Jan-28 14:33N 51°25' E 003°13'1211.8
2016-Jan-28 13:33N 51°26' E 003°32'8 7.9
2016-Jan-28 12:33N 51°23' E 003°44'9 9.3
2016-Jan-28 11:33N 51°25' E 003°58'9 9.3
2016-Jan-28 10:34N 51°23' E 004°13'6 6.2
2016-Jan-28 09:33N 51°18' E 004°16'0 0.0
2016-Jan-28 08:33N 51°18' E 004°16'0 0.0
2016-Jan-28 07:33N 51°18' E 004°16'0 0.0
2016-Jan-28 06:30N 51°18' E 004°16'0 0.0
2016-Jan-28 05:33N 51°18' E 004°16'0 0.0
2016-Jan-28 04:33N 51°18' E 004°16'0 0.0
2016-Jan-28 03:24N 51°18' E 004°16'0 0.0
2016-Jan-28 02:33N 51°18' E 004°16'0 0.0
2016-Jan-28 01:30N 51°18' E 004°16'2 1.6
2016-Jan-28 00:33N 51°19' E 004°16'7 6.6
2016-Jan-27 23:34N 51°22' E 004°07'7 6.8
2016-Jan-27 22:34N 51°22' E 003°56'9 9.1
2016-Jan-27 21:34N 51°25' E 003°42'9 9.1
2016-Jan-27 20:33N 51°29' E 003°29'1211.6
2016-Jan-27 19:33N 51°39' E 003°19'8 8.2
2016-Jan-27 18:34N 51°47' E 003°16'4 3.1
2016-Jan-27 17:07N 51°49' E 003°23'0 0.1
2016-Jan-27 16:29N 51°49' E 003°23'0 0.0
2016-Jan-27 15:33N 51°49' E 003°23'0 0.0
2016-Jan-27 14:33N 51°49' E 003°23'0 0.0
2016-Jan-27 13:25N 51°49' E 003°23'0 0.0
2016-Jan-27 12:32N 51°49' E 003°23'0 0.0
2016-Jan-27 11:21N 51°49' E 003°23'0 0.0
2016-Jan-27 10:33N 51°49' E 003°23'0 0.0
2016-Jan-27 09:32N 51°49' E 003°23'0 0.0
2016-Jan-27 08:32N 51°49' E 003°23'0 0.0
2016-Jan-27 07:33N 51°49' E 003°23'5 4.5
2016-Jan-27 06:32N 51°52' E 003°18'11 5.2
2016-Jan-27 04:23N 52°03' E 003°25'4 4.7
2016-Jan-27 03:33N 52°03' E 003°31'5 5.0
2016-Jan-27 02:33N 52°04' E 003°39'6 5.9
2016-Jan-27 01:33N 52°03' E 003°49'5 5.5
2016-Jan-27 00:34N 52°03' E 003°58'  

Dump ship's entire track history